sensor_id;sensor_type;location;lat;lon;timestamp;temperature;humidity
17795;DHT22;9021;50.882;4.326;2023-07-13T00:00:42;18.50;99.90
17795;DHT22;9021;50.882;4.326;2023-07-13T00:03:07;18.40;99.90
17795;DHT22;9021;50.882;4.326;2023-07-13T00:05:33;18.20;99.90
17795;DHT22;9021;50.882;4.326;2023-07-13T00:07:58;18.30;99.90
17795;DHT22;9021;50.882;4.326;2023-07-13T00:10:24;18.40;99.90
17795;DHT22;9021;50.882;4.326;2023-07-13T00:12:50;18.40;99.90
17795;DHT22;9021;50.882;4.326;2023-07-13T00:15:18;18.50;99.90
17795;DHT22;9021;50.882;4.326;2023-07-13T00:17:51;18.40;99.90
17795;DHT22;9021;50.882;4.326;2023-07-13T00:20:17;18.50;99.90
17795;DHT22;9021;50.882;4.326;2023-07-13T00:22:43;18.40;99.90
17795;DHT22;9021;50.882;4.326;2023-07-13T00:25:10;18.30;99.90
17795;DHT22;9021;50.882;4.326;2023-07-13T00:27:36;19.50;99.90
17795;DHT22;9021;50.882;4.326;2023-07-13T00:30:01;18.40;99.90
17795;DHT22;9021;50.882;4.326;2023-07-13T00:32:28;20.60;99.90
17795;DHT22;9021;50.882;4.326;2023-07-13T00:34:55;18.30;99.90
17795;DHT22;9021;50.882;4.326;2023-07-13T00:37:20;18.30;99.90
17795;DHT22;9021;50.882;4.326;2023-07-13T00:39:46;18.30;99.90
17795;DHT22;9021;50.882;4.326;2023-07-13T00:42:11;18.40;99.90
17795;DHT22;9021;50.882;4.326;2023-07-13T00:44:37;18.30;99.90
17795;DHT22;9021;50.882;4.326;2023-07-13T00:47:04;18.30;99.90
17795;DHT22;9021;50.882;4.326;2023-07-13T00:49:30;18.40;99.90
17795;DHT22;9021;50.882;4.326;2023-07-13T00:54:27;18.20;99.90
17795;DHT22;9021;50.882;4.326;2023-07-13T00:56:55;18.30;99.90
17795;DHT22;9021;50.882;4.326;2023-07-13T00:59:22;18.30;99.90
17795;DHT22;9021;50.882;4.326;2023-07-13T01:01:48;18.20;99.90
17795;DHT22;9021;50.882;4.326;2023-07-13T01:04:16;18.10;99.90
17795;DHT22;9021;50.882;4.326;2023-07-13T01:06:42;18.10;99.90
17795;DHT22;9021;50.882;4.326;2023-07-13T01:09:09;18.00;99.90
17795;DHT22;9021;50.882;4.326;2023-07-13T01:11:35;18.10;99.90
17795;DHT22;9021;50.882;4.326;2023-07-13T01:14:01;18.10;99.90
17795;DHT22;9021;50.882;4.326;2023-07-13T01:16:28;17.90;99.90
17795;DHT22;9021;50.882;4.326;2023-07-13T01:18:55;17.90;99.90
17795;DHT22;9021;50.882;4.326;2023-07-13T01:21:23;17.90;99.90
17795;DHT22;9021;50.882;4.326;2023-07-13T01:23:49;17.90;99.90
17795;DHT22;9021;50.882;4.326;2023-07-13T01:26:15;17.80;99.90
17795;DHT22;9021;50.882;4.326;2023-07-13T01:28:40;18.00;99.90
17795;DHT22;9021;50.882;4.326;2023-07-13T01:31:06;18.10;99.90
17795;DHT22;9021;50.882;4.326;2023-07-13T01:33:31;17.90;99.90
17795;DHT22;9021;50.882;4.326;2023-07-13T01:35:57;17.90;99.90
17795;DHT22;9021;50.882;4.326;2023-07-13T01:38:23;17.90;99.90
17795;DHT22;9021;50.882;4.326;2023-07-13T01:40:48;17.80;99.90
17795;DHT22;9021;50.882;4.326;2023-07-13T01:43:14;17.70;99.90
17795;DHT22;9021;50.882;4.326;2023-07-13T01:45:40;17.70;99.90
17795;DHT22;9021;50.882;4.326;2023-07-13T01:48:05;17.70;99.90
17795;DHT22;9021;50.882;4.326;2023-07-13T01:50:32;17.70;99.90
17795;DHT22;9021;50.882;4.326;2023-07-13T01:52:57;17.60;99.90
17795;DHT22;9021;50.882;4.326;2023-07-13T01:55:23;17.50;99.90
17795;DHT22;9021;50.882;4.326;2023-07-13T01:57:49;17.40;99.90
17795;DHT22;9021;50.882;4.326;2023-07-13T02:00:14;17.40;99.90
17795;DHT22;9021;50.882;4.326;2023-07-13T02:02:40;17.40;99.90
17795;DHT22;9021;50.882;4.326;2023-07-13T02:05:06;17.30;99.90
17795;DHT22;9021;50.882;4.326;2023-07-13T02:07:31;17.40;99.90
17795;DHT22;9021;50.882;4.326;2023-07-13T02:09:57;17.20;99.90
17795;DHT22;9021;50.882;4.326;2023-07-13T02:12:23;17.30;99.90
17795;DHT22;9021;50.882;4.326;2023-07-13T02:14:48;17.30;99.90
17795;DHT22;9021;50.882;4.326;2023-07-13T02:17:13;17.40;99.90
17795;DHT22;9021;50.882;4.326;2023-07-13T02:19:39;17.40;99.90
17795;DHT22;9021;50.882;4.326;2023-07-13T02:22:05;17.30;99.90
17795;DHT22;9021;50.882;4.326;2023-07-13T02:24:30;17.30;99.90
17795;DHT22;9021;50.882;4.326;2023-07-13T02:26:56;17.30;99.90
17795;DHT22;9021;50.882;4.326;2023-07-13T02:29:22;17.10;99.90
17795;DHT22;9021;50.882;4.326;2023-07-13T02:31:48;17.10;99.90
17795;DHT22;9021;50.882;4.326;2023-07-13T02:34:13;16.90;99.90
17795;DHT22;9021;50.882;4.326;2023-07-13T02:36:39;17.00;99.90
17795;DHT22;9021;50.882;4.326;2023-07-13T02:39:05;17.00;99.90
17795;DHT22;9021;50.882;4.326;2023-07-13T02:41:30;17.10;99.90
17795;DHT22;9021;50.882;4.326;2023-07-13T02:43:57;17.10;99.90
17795;DHT22;9021;50.882;4.326;2023-07-13T02:46:28;17.10;99.90
17795;DHT22;9021;50.882;4.326;2023-07-13T02:48:53;17.00;99.90
17795;DHT22;9021;50.882;4.326;2023-07-13T02:51:19;17.00;99.90
17795;DHT22;9021;50.882;4.326;2023-07-13T02:53:45;17.10;99.90
17795;DHT22;9021;50.882;4.326;2023-07-13T02:56:10;17.00;99.90
17795;DHT22;9021;50.882;4.326;2023-07-13T02:58:36;17.00;99.90
17795;DHT22;9021;50.882;4.326;2023-07-13T03:01:07;16.90;99.90
17795;DHT22;9021;50.882;4.326;2023-07-13T03:03:33;16.90;99.90
17795;DHT22;9021;50.882;4.326;2023-07-13T03:05:59;17.00;99.90
17795;DHT22;9021;50.882;4.326;2023-07-13T03:08:25;17.10;99.90
17795;DHT22;9021;50.882;4.326;2023-07-13T03:11:12;17.00;99.90
17795;DHT22;9021;50.882;4.326;2023-07-13T03:13:37;17.00;99.90
17795;DHT22;9021;50.882;4.326;2023-07-13T03:16:03;16.90;99.90
17795;DHT22;9021;50.882;4.326;2023-07-13T03:18:29;16.90;99.90
17795;DHT22;9021;50.882;4.326;2023-07-13T03:20:54;16.90;99.90
17795;DHT22;9021;50.882;4.326;2023-07-13T03:23:20;16.90;99.90
17795;DHT22;9021;50.882;4.326;2023-07-13T03:25:46;16.90;99.90
17795;DHT22;9021;50.882;4.326;2023-07-13T03:28:12;16.90;99.90
17795;DHT22;9021;50.882;4.326;2023-07-13T03:30:38;16.80;99.90
17795;DHT22;9021;50.882;4.326;2023-07-13T03:33:03;16.90;99.90
17795;DHT22;9021;50.882;4.326;2023-07-13T03:35:29;16.70;99.90
17795;DHT22;9021;50.882;4.326;2023-07-13T03:37:54;16.70;99.90
17795;DHT22;9021;50.882;4.326;2023-07-13T03:40:20;16.70;99.90
17795;DHT22;9021;50.882;4.326;2023-07-13T03:42:46;16.70;99.90
17795;DHT22;9021;50.882;4.326;2023-07-13T03:45:11;16.90;99.90
17795;DHT22;9021;50.882;4.326;2023-07-13T03:47:37;16.80;99.90
17795;DHT22;9021;50.882;4.326;2023-07-13T03:50:03;16.90;99.90
17795;DHT22;9021;50.882;4.326;2023-07-13T03:52:28;16.90;99.90
17795;DHT22;9021;50.882;4.326;2023-07-13T03:54:54;16.90;99.90
17795;DHT22;9021;50.882;4.326;2023-07-13T03:57:19;16.90;99.90
17795;DHT22;9021;50.882;4.326;2023-07-13T03:59:45;17.00;99.90
17795;DHT22;9021;50.882;4.326;2023-07-13T04:02:10;17.00;99.90
17795;DHT22;9021;50.882;4.326;2023-07-13T04:04:36;16.90;99.90
17795;DHT22;9021;50.882;4.326;2023-07-13T04:07:01;17.60;99.90
17795;DHT22;9021;50.882;4.326;2023-07-13T04:09:27;17.00;99.90
17795;DHT22;9021;50.882;4.326;2023-07-13T04:11:52;16.90;99.90
17795;DHT22;9021;50.882;4.326;2023-07-13T04:14:18;16.90;99.90
17795;DHT22;9021;50.882;4.326;2023-07-13T04:16:43;16.90;99.90
17795;DHT22;9021;50.882;4.326;2023-07-13T04:19:09;16.90;99.90
17795;DHT22;9021;50.882;4.326;2023-07-13T04:21:35;17.00;99.90
17795;DHT22;9021;50.882;4.326;2023-07-13T04:24:01;17.00;99.90
17795;DHT22;9021;50.882;4.326;2023-07-13T04:26:28;17.00;99.90
17795;DHT22;9021;50.882;4.326;2023-07-13T04:28:53;17.10;99.90
17795;DHT22;9021;50.882;4.326;2023-07-13T04:31:19;17.10;99.90
17795;DHT22;9021;50.882;4.326;2023-07-13T04:33:45;17.10;99.90
17795;DHT22;9021;50.882;4.326;2023-07-13T04:36:10;17.20;99.90
17795;DHT22;9021;50.882;4.326;2023-07-13T04:38:36;17.10;99.90
17795;DHT22;9021;50.882;4.326;2023-07-13T04:41:03;17.10;99.90
17795;DHT22;9021;50.882;4.326;2023-07-13T04:43:29;17.20;99.90
17795;DHT22;9021;50.882;4.326;2023-07-13T04:45:55;17.20;99.90
17795;DHT22;9021;50.882;4.326;2023-07-13T04:48:21;17.20;99.90
17795;DHT22;9021;50.882;4.326;2023-07-13T04:50:47;17.10;99.90
17795;DHT22;9021;50.882;4.326;2023-07-13T04:53:13;17.20;99.90
17795;DHT22;9021;50.882;4.326;2023-07-13T04:55:38;17.30;99.90
17795;DHT22;9021;50.882;4.326;2023-07-13T04:58:04;17.30;99.90
17795;DHT22;9021;50.882;4.326;2023-07-13T05:00:30;17.40;99.90
17795;DHT22;9021;50.882;4.326;2023-07-13T05:02:56;17.40;99.90
17795;DHT22;9021;50.882;4.326;2023-07-13T05:05:22;17.40;99.90
17795;DHT22;9021;50.882;4.326;2023-07-13T05:07:48;17.50;99.90
17795;DHT22;9021;50.882;4.326;2023-07-13T05:10:14;17.50;99.90
17795;DHT22;9021;50.882;4.326;2023-07-13T05:12:39;17.50;99.90
17795;DHT22;9021;50.882;4.326;2023-07-13T05:15:05;17.50;99.90
17795;DHT22;9021;50.882;4.326;2023-07-13T05:17:31;17.60;99.90
17795;DHT22;9021;50.882;4.326;2023-07-13T05:19:56;17.70;99.90
17795;DHT22;9021;50.882;4.326;2023-07-13T05:22:22;17.70;99.90
17795;DHT22;9021;50.882;4.326;2023-07-13T05:24:47;17.60;99.90
17795;DHT22;9021;50.882;4.326;2023-07-13T05:27:13;17.60;99.90
17795;DHT22;9021;50.882;4.326;2023-07-13T05:29:38;17.50;99.90
17795;DHT22;9021;50.882;4.326;2023-07-13T05:32:04;17.50;99.90
17795;DHT22;9021;50.882;4.326;2023-07-13T05:34:29;17.50;99.90
17795;DHT22;9021;50.882;4.326;2023-07-13T05:36:55;17.50;99.90
17795;DHT22;9021;50.882;4.326;2023-07-13T05:39:20;17.60;99.90
17795;DHT22;9021;50.882;4.326;2023-07-13T05:41:46;17.60;99.90
17795;DHT22;9021;50.882;4.326;2023-07-13T05:44:11;17.70;99.90
17795;DHT22;9021;50.882;4.326;2023-07-13T05:46:37;17.80;99.90
17795;DHT22;9021;50.882;4.326;2023-07-13T05:49:02;17.80;99.90
17795;DHT22;9021;50.882;4.326;2023-07-13T05:51:28;17.90;99.90
17795;DHT22;9021;50.882;4.326;2023-07-13T05:53:54;18.00;99.90
17795;DHT22;9021;50.882;4.326;2023-07-13T05:56:20;18.10;99.90
17795;DHT22;9021;50.882;4.326;2023-07-13T05:58:45;18.20;99.90
17795;DHT22;9021;50.882;4.326;2023-07-13T06:01:12;18.10;99.90
17795;DHT22;9021;50.882;4.326;2023-07-13T06:03:38;18.00;99.90
17795;DHT22;9021;50.882;4.326;2023-07-13T06:06:04;17.90;99.90
17795;DHT22;9021;50.882;4.326;2023-07-13T06:08:29;17.90;99.90
17795;DHT22;9021;50.882;4.326;2023-07-13T06:11:00;18.10;99.90
17795;DHT22;9021;50.882;4.326;2023-07-13T06:13:26;18.20;99.90
17795;DHT22;9021;50.882;4.326;2023-07-13T06:15:51;18.30;99.90
17795;DHT22;9021;50.882;4.326;2023-07-13T06:18:17;18.30;99.90
17795;DHT22;9021;50.882;4.326;2023-07-13T06:20:42;18.40;99.90
17795;DHT22;9021;50.882;4.326;2023-07-13T06:23:08;18.50;99.90
17795;DHT22;9021;50.882;4.326;2023-07-13T06:25:33;18.50;99.90
17795;DHT22;9021;50.882;4.326;2023-07-13T06:27:59;18.40;99.90
17795;DHT22;9021;50.882;4.326;2023-07-13T06:30:25;18.50;99.90
17795;DHT22;9021;50.882;4.326;2023-07-13T06:32:51;18.50;99.90
17795;DHT22;9021;50.882;4.326;2023-07-13T06:35:17;18.60;99.90
17795;DHT22;9021;50.882;4.326;2023-07-13T06:37:42;18.80;99.90
17795;DHT22;9021;50.882;4.326;2023-07-13T06:40:08;18.90;99.90
17795;DHT22;9021;50.882;4.326;2023-07-13T06:42:34;18.90;99.90
17795;DHT22;9021;50.882;4.326;2023-07-13T06:44:59;19.00;99.90
17795;DHT22;9021;50.882;4.326;2023-07-13T06:47:25;19.20;99.90
17795;DHT22;9021;50.882;4.326;2023-07-13T06:49:50;19.40;99.90
17795;DHT22;9021;50.882;4.326;2023-07-13T06:52:16;19.50;99.90
17795;DHT22;9021;50.882;4.326;2023-07-13T06:54:41;19.70;99.90
17795;DHT22;9021;50.882;4.326;2023-07-13T06:57:07;19.80;99.90
17795;DHT22;9021;50.882;4.326;2023-07-13T06:59:32;19.80;99.90
17795;DHT22;9021;50.882;4.326;2023-07-13T07:01:58;19.60;99.90
17795;DHT22;9021;50.882;4.326;2023-07-13T07:04:23;19.70;99.90
17795;DHT22;9021;50.882;4.326;2023-07-13T07:06:49;19.80;99.90
17795;DHT22;9021;50.882;4.326;2023-07-13T07:09:14;19.90;99.90
17795;DHT22;9021;50.882;4.326;2023-07-13T07:11:41;20.20;99.90
17795;DHT22;9021;50.882;4.326;2023-07-13T07:14:07;20.40;99.90
17795;DHT22;9021;50.882;4.326;2023-07-13T07:16:33;20.70;99.90
17795;DHT22;9021;50.882;4.326;2023-07-13T07:18:58;20.90;99.90
17795;DHT22;9021;50.882;4.326;2023-07-13T07:21:24;21.00;99.90
17795;DHT22;9021;50.882;4.326;2023-07-13T07:23:49;21.10;99.90
17795;DHT22;9021;50.882;4.326;2023-07-13T07:26:15;20.90;99.90
17795;DHT22;9021;50.882;4.326;2023-07-13T07:28:40;21.00;99.90
17795;DHT22;9021;50.882;4.326;2023-07-13T07:31:06;21.10;99.90
17795;DHT22;9021;50.882;4.326;2023-07-13T07:33:32;21.40;99.90
17795;DHT22;9021;50.882;4.326;2023-07-13T07:35:58;21.80;99.90
17795;DHT22;9021;50.882;4.326;2023-07-13T07:38:24;22.50;99.90
17795;DHT22;9021;50.882;4.326;2023-07-13T07:40:49;23.20;99.90
17795;DHT22;9021;50.882;4.326;2023-07-13T07:43:15;24.30;99.90
17795;DHT22;9021;50.882;4.326;2023-07-13T07:45:40;25.10;99.90
17795;DHT22;9021;50.882;4.326;2023-07-13T07:48:07;26.10;99.20
17795;DHT22;9021;50.882;4.326;2023-07-13T07:50:32;26.60;97.40
17795;DHT22;9021;50.882;4.326;2023-07-13T07:52:58;26.50;96.80
17795;DHT22;9021;50.882;4.326;2023-07-13T07:55:24;26.30;96.60
17795;DHT22;9021;50.882;4.326;2023-07-13T07:57:53;25.80;97.30
17795;DHT22;9021;50.882;4.326;2023-07-13T08:00:18;26.40;96.50
17795;DHT22;9021;50.882;4.326;2023-07-13T08:02:45;26.20;96.00
17795;DHT22;9021;50.882;4.326;2023-07-13T08:05:10;26.70;96.00
17795;DHT22;9021;50.882;4.326;2023-07-13T08:07:36;26.30;95.90
17795;DHT22;9021;50.882;4.326;2023-07-13T08:10:02;26.90;95.30
17795;DHT22;9021;50.882;4.326;2023-07-13T08:12:27;27.50;94.50
17795;DHT22;9021;50.882;4.326;2023-07-13T08:14:53;27.60;94.30
17795;DHT22;9021;50.882;4.326;2023-07-13T08:17:23;27.20;94.40
17795;DHT22;9021;50.882;4.326;2023-07-13T08:19:49;26.60;94.80
17795;DHT22;9021;50.882;4.326;2023-07-13T08:22:14;26.30;95.00
17795;DHT22;9021;50.882;4.326;2023-07-13T08:24:40;26.20;94.90
17795;DHT22;9021;50.882;4.326;2023-07-13T08:27:07;25.30;96.00
17795;DHT22;9021;50.882;4.326;2023-07-13T08:29:33;25.10;96.20
17795;DHT22;9021;50.882;4.326;2023-07-13T08:31:58;24.60;96.70
17795;DHT22;9021;50.882;4.326;2023-07-13T08:34:24;24.20;96.90
17795;DHT22;9021;50.882;4.326;2023-07-13T08:36:49;24.30;96.80
17795;DHT22;9021;50.882;4.326;2023-07-13T08:39:15;24.10;97.20
17795;DHT22;9021;50.882;4.326;2023-07-13T08:41:40;24.40;97.10
17795;DHT22;9021;50.882;4.326;2023-07-13T08:44:07;24.70;96.30
17795;DHT22;9021;50.882;4.326;2023-07-13T08:46:41;24.70;96.20
17795;DHT22;9021;50.882;4.326;2023-07-13T08:49:15;24.80;95.90
17795;DHT22;9021;50.882;4.326;2023-07-13T08:51:42;25.10;95.80
17795;DHT22;9021;50.882;4.326;2023-07-13T08:54:12;26.10;94.60
17795;DHT22;9021;50.882;4.326;2023-07-13T08:56:43;27.50;93.70
17795;DHT22;9021;50.882;4.326;2023-07-13T08:59:12;28.70;92.20
17795;DHT22;9021;50.882;4.326;2023-07-13T09:04:12;29.60;90.30
17795;DHT22;9021;50.882;4.326;2023-07-13T09:06:48;29.40;90.00
17795;DHT22;9021;50.882;4.326;2023-07-13T09:09:20;30.40;88.80
17795;DHT22;9021;50.882;4.326;2023-07-13T09:14:49;30.40;86.90
17795;DHT22;9021;50.882;4.326;2023-07-13T09:17:18;31.30;85.50
17795;DHT22;9021;50.882;4.326;2023-07-13T09:19:44;31.80;83.90
17795;DHT22;9021;50.882;4.326;2023-07-13T09:22:15;31.00;84.60
17795;DHT22;9021;50.882;4.326;2023-07-13T09:24:47;30.90;84.80
17795;DHT22;9021;50.882;4.326;2023-07-13T09:27:19;30.20;84.60
17795;DHT22;9021;50.882;4.326;2023-07-13T09:29:48;29.40;85.80
17795;DHT22;9021;50.882;4.326;2023-07-13T09:32:14;28.90;86.70
17795;DHT22;9021;50.882;4.326;2023-07-13T09:34:42;28.20;87.60
17795;DHT22;9021;50.882;4.326;2023-07-13T09:37:14;28.40;88.40
17795;DHT22;9021;50.882;4.326;2023-07-13T09:39:40;28.90;88.00
17795;DHT22;9021;50.882;4.326;2023-07-13T09:42:12;29.10;86.60
17795;DHT22;9021;50.882;4.326;2023-07-13T09:47:25;30.20;84.70
17795;DHT22;9021;50.882;4.326;2023-07-13T09:50:04;31.30;81.90
17795;DHT22;9021;50.882;4.326;2023-07-13T09:52:41;31.70;81.10
17795;DHT22;9021;50.882;4.326;2023-07-13T09:58:13;30.70;81.20
17795;DHT22;9021;50.882;4.326;2023-07-13T10:00:39;30.80;81.20
17795;DHT22;9021;50.882;4.326;2023-07-13T10:03:13;30.30;82.40
17795;DHT22;9021;50.882;4.326;2023-07-13T10:05:40;30.00;82.30
17795;DHT22;9021;50.882;4.326;2023-07-13T10:08:14;29.30;83.30
17795;DHT22;9021;50.882;4.326;2023-07-13T10:10:40;28.80;85.00
17795;DHT22;9021;50.882;4.326;2023-07-13T10:13:08;28.20;84.60
17795;DHT22;9021;50.882;4.326;2023-07-13T10:15:45;28.10;84.90
17795;DHT22;9021;50.882;4.326;2023-07-13T10:18:10;27.80;85.60
17795;DHT22;9021;50.882;4.326;2023-07-13T10:20:36;27.50;86.70
17795;DHT22;9021;50.882;4.326;2023-07-13T10:23:02;28.30;85.00
17795;DHT22;9021;50.882;4.326;2023-07-13T10:25:31;29.40;83.50
17795;DHT22;9021;50.882;4.326;2023-07-13T10:28:02;29.70;82.90
17795;DHT22;9021;50.882;4.326;2023-07-13T10:30:31;29.70;82.90
17795;DHT22;9021;50.882;4.326;2023-07-13T10:32:58;28.30;85.30
17795;DHT22;9021;50.882;4.326;2023-07-13T10:35:25;27.30;86.70
17795;DHT22;9021;50.882;4.326;2023-07-13T10:38:01;26.30;88.20
17795;DHT22;9021;50.882;4.326;2023-07-13T10:40:39;25.70;90.00
17795;DHT22;9021;50.882;4.326;2023-07-13T10:43:09;25.20;90.50
17795;DHT22;9021;50.882;4.326;2023-07-13T10:45:39;24.70;90.90
17795;DHT22;9021;50.882;4.326;2023-07-13T10:48:05;24.20;91.40
17795;DHT22;9021;50.882;4.326;2023-07-13T10:50:35;23.80;92.90
17795;DHT22;9021;50.882;4.326;2023-07-13T10:53:03;23.50;93.60
17795;DHT22;9021;50.882;4.326;2023-07-13T10:58:19;23.60;94.60
17795;DHT22;9021;50.882;4.326;2023-07-13T11:01:39;24.70;93.00
17795;DHT22;9021;50.882;4.326;2023-07-13T11:04:17;26.10;91.70
17795;DHT22;9021;50.882;4.326;2023-07-13T11:09:18;27.60;89.50
17795;DHT22;9021;50.882;4.326;2023-07-13T11:11:44;28.20;87.00
17795;DHT22;9021;50.882;4.326;2023-07-13T11:14:29;28.00;86.70
17795;DHT22;9021;50.882;4.326;2023-07-13T11:16:55;27.60;87.10
17795;DHT22;9021;50.882;4.326;2023-07-13T11:19:24;27.10;87.70
17795;DHT22;9021;50.882;4.326;2023-07-13T11:27:33;26.00;90.00
17795;DHT22;9021;50.882;4.326;2023-07-13T11:32:45;25.70;90.00
17795;DHT22;9021;50.882;4.326;2023-07-13T11:35:16;25.60;90.30
17795;DHT22;9021;50.882;4.326;2023-07-13T11:37:44;25.10;90.40
17795;DHT22;9021;50.882;4.326;2023-07-13T11:40:14;24.70;90.90
17795;DHT22;9021;50.882;4.326;2023-07-13T11:42:39;24.30;91.40
17795;DHT22;9021;50.882;4.326;2023-07-13T11:45:14;23.90;92.20
17795;DHT22;9021;50.882;4.326;2023-07-13T11:47:43;23.50;95.10
17795;DHT22;9021;50.882;4.326;2023-07-13T11:50:16;22.90;95.30
17795;DHT22;9021;50.882;4.326;2023-07-13T11:52:43;22.70;96.50
17795;DHT22;9021;50.882;4.326;2023-07-13T11:55:16;22.40;96.70
17795;DHT22;9021;50.882;4.326;2023-07-13T11:57:45;22.00;98.30
17795;DHT22;9021;50.882;4.326;2023-07-13T12:00:20;21.60;99.00
17795;DHT22;9021;50.882;4.326;2023-07-13T12:02:48;21.50;99.10
17795;DHT22;9021;50.882;4.326;2023-07-13T12:05:17;21.50;99.90
17795;DHT22;9021;50.882;4.326;2023-07-13T12:07:43;21.70;99.90
17795;DHT22;9021;50.882;4.326;2023-07-13T12:12:37;21.80;99.90
17795;DHT22;9021;50.882;4.326;2023-07-13T12:15:06;21.90;99.00
17795;DHT22;9021;50.882;4.326;2023-07-13T12:17:34;21.90;97.70
17795;DHT22;9021;50.882;4.326;2023-07-13T12:20:00;21.90;99.80
17795;DHT22;9021;50.882;4.326;2023-07-13T12:22:26;20.20;99.30
17795;DHT22;9021;50.882;4.326;2023-07-13T12:24:52;21.70;99.70
17795;DHT22;9021;50.882;4.326;2023-07-13T12:29:49;20.90;99.90
17795;DHT22;9021;50.882;4.326;2023-07-13T12:32:17;20.60;99.90
17795;DHT22;9021;50.882;4.326;2023-07-13T12:34:53;20.90;99.90
17795;DHT22;9021;50.882;4.326;2023-07-13T12:37:19;20.30;99.90
17795;DHT22;9021;50.882;4.326;2023-07-13T12:39:45;20.30;99.90
17795;DHT22;9021;50.882;4.326;2023-07-13T12:42:16;20.30;99.90
17795;DHT22;9021;50.882;4.326;2023-07-13T12:44:43;20.10;99.90
17795;DHT22;9021;50.882;4.326;2023-07-13T12:47:11;20.00;99.90
17795;DHT22;9021;50.882;4.326;2023-07-13T12:49:40;20.10;99.90
17795;DHT22;9021;50.882;4.326;2023-07-13T12:52:16;20.20;99.90
17795;DHT22;9021;50.882;4.326;2023-07-13T12:54:52;20.20;99.90
17795;DHT22;9021;50.882;4.326;2023-07-13T12:57:18;20.20;99.90
17795;DHT22;9021;50.882;4.326;2023-07-13T12:59:43;20.10;99.90
17795;DHT22;9021;50.882;4.326;2023-07-13T13:02:30;20.00;99.90
17795;DHT22;9021;50.882;4.326;2023-07-13T13:04:56;20.10;99.90
17795;DHT22;9021;50.882;4.326;2023-07-13T13:07:23;20.20;99.90
17795;DHT22;9021;50.882;4.326;2023-07-13T13:09:49;20.40;99.90
17795;DHT22;9021;50.882;4.326;2023-07-13T13:12:14;18.60;99.90
17795;DHT22;9021;50.882;4.326;2023-07-13T13:14:40;20.60;99.90
17795;DHT22;9021;50.882;4.326;2023-07-13T13:17:19;20.70;99.90
17795;DHT22;9021;50.882;4.326;2023-07-13T13:19:45;20.80;99.90
17795;DHT22;9021;50.882;4.326;2023-07-13T13:22:11;21.00;99.90
17795;DHT22;9021;50.882;4.326;2023-07-13T13:24:36;21.20;99.90
17795;DHT22;9021;50.882;4.326;2023-07-13T13:27:02;20.90;99.90
17795;DHT22;9021;50.882;4.326;2023-07-13T13:29:28;20.90;99.90
17795;DHT22;9021;50.882;4.326;2023-07-13T13:31:54;21.10;99.90
17795;DHT22;9021;50.882;4.326;2023-07-13T13:34:20;21.20;99.90
17795;DHT22;9021;50.882;4.326;2023-07-13T13:36:48;21.90;99.90
17795;DHT22;9021;50.882;4.326;2023-07-13T13:39:21;22.60;99.90
17795;DHT22;9021;50.882;4.326;2023-07-13T13:41:48;23.30;99.90
17795;DHT22;9021;50.882;4.326;2023-07-13T13:44:15;23.70;99.90
17795;DHT22;9021;50.882;4.326;2023-07-13T13:46:40;24.00;99.90
17795;DHT22;9021;50.882;4.326;2023-07-13T13:49:10;24.40;99.90
17795;DHT22;9021;50.882;4.326;2023-07-13T13:51:37;24.50;99.90
17795;DHT22;9021;50.882;4.326;2023-07-13T13:54:03;24.40;99.90
17795;DHT22;9021;50.882;4.326;2023-07-13T13:56:30;24.60;99.90
17795;DHT22;9021;50.882;4.326;2023-07-13T13:58:55;24.40;99.90
17795;DHT22;9021;50.882;4.326;2023-07-13T14:01:21;24.40;99.90
17795;DHT22;9021;50.882;4.326;2023-07-13T14:03:48;24.50;99.90
17795;DHT22;9021;50.882;4.326;2023-07-13T14:06:16;24.60;99.70
17795;DHT22;9021;50.882;4.326;2023-07-13T14:08:42;24.90;99.90
17795;DHT22;9021;50.882;4.326;2023-07-13T14:11:12;25.00;99.90
17795;DHT22;9021;50.882;4.326;2023-07-13T14:13:39;25.00;98.70
17795;DHT22;9021;50.882;4.326;2023-07-13T14:16:13;25.10;99.20
17795;DHT22;9021;50.882;4.326;2023-07-13T14:18:40;24.90;99.90
17795;DHT22;9021;50.882;4.326;2023-07-13T14:21:12;25.00;98.70
17795;DHT22;9021;50.882;4.326;2023-07-13T14:23:38;25.20;98.90
17795;DHT22;9021;50.882;4.326;2023-07-13T14:26:08;25.30;98.30
17795;DHT22;9021;50.882;4.326;2023-07-13T14:28:34;25.40;98.60
17795;DHT22;9021;50.882;4.326;2023-07-13T14:31:00;25.30;97.30
17795;DHT22;9021;50.882;4.326;2023-07-13T14:33:26;25.20;96.70
17795;DHT22;9021;50.882;4.326;2023-07-13T14:35:51;25.10;96.70
17795;DHT22;9021;50.882;4.326;2023-07-13T14:38:18;25.00;96.30
17795;DHT22;9021;50.882;4.326;2023-07-13T14:40:45;24.70;95.80
17795;DHT22;9021;50.882;4.326;2023-07-13T14:43:11;24.30;97.20
17795;DHT22;9021;50.882;4.326;2023-07-13T14:45:38;24.20;97.00
17795;DHT22;9021;50.882;4.326;2023-07-13T14:48:09;24.10;96.60
17795;DHT22;9021;50.882;4.326;2023-07-13T14:50:38;24.20;96.20
17795;DHT22;9021;50.882;4.326;2023-07-13T14:53:04;24.40;96.60
17795;DHT22;9021;50.882;4.326;2023-07-13T14:55:29;24.40;95.00
17795;DHT22;9021;50.882;4.326;2023-07-13T14:57:55;24.60;94.90
17795;DHT22;9021;50.882;4.326;2023-07-13T15:00:22;24.80;95.00
17795;DHT22;9021;50.882;4.326;2023-07-13T15:02:51;24.80;94.70
17795;DHT22;9021;50.882;4.326;2023-07-13T15:05:19;24.70;95.50
17795;DHT22;9021;50.882;4.326;2023-07-13T15:07:45;24.70;94.70
17795;DHT22;9021;50.882;4.326;2023-07-13T15:10:18;24.50;95.10
17795;DHT22;9021;50.882;4.326;2023-07-13T15:12:44;24.70;95.10
17795;DHT22;9021;50.882;4.326;2023-07-13T15:15:10;24.80;94.70
17795;DHT22;9021;50.882;4.326;2023-07-13T15:17:36;24.60;94.70
17795;DHT22;9021;50.882;4.326;2023-07-13T15:20:06;24.50;95.20
17795;DHT22;9021;50.882;4.326;2023-07-13T15:22:36;24.70;94.80
17795;DHT22;9021;50.882;4.326;2023-07-13T15:25:01;24.90;94.80
17795;DHT22;9021;50.882;4.326;2023-07-13T15:27:29;25.00;94.60
17795;DHT22;9021;50.882;4.326;2023-07-13T15:29:54;24.90;94.30
17795;DHT22;9021;50.882;4.326;2023-07-13T15:32:20;24.80;94.30
17795;DHT22;9021;50.882;4.326;2023-07-13T15:34:45;24.80;94.40
17795;DHT22;9021;50.882;4.326;2023-07-13T15:37:14;24.90;94.10
17795;DHT22;9021;50.882;4.326;2023-07-13T15:39:41;25.00;94.20
17795;DHT22;9021;50.882;4.326;2023-07-13T15:42:12;25.10;94.30
17795;DHT22;9021;50.882;4.326;2023-07-13T15:44:39;25.10;94.50
17795;DHT22;9021;50.882;4.326;2023-07-13T15:47:05;25.10;94.10
17795;DHT22;9021;50.882;4.326;2023-07-13T15:49:32;25.30;91.80
17795;DHT22;9021;50.882;4.326;2023-07-13T15:51:57;25.40;91.50
17795;DHT22;9021;50.882;4.326;2023-07-13T15:54:23;25.50;91.10
17795;DHT22;9021;50.882;4.326;2023-07-13T15:56:53;25.60;90.00
17795;DHT22;9021;50.882;4.326;2023-07-13T15:59:19;25.50;90.50
17795;DHT22;9021;50.882;4.326;2023-07-13T16:01:45;25.50;90.10
17795;DHT22;9021;50.882;4.326;2023-07-13T16:04:11;25.40;90.10
17795;DHT22;9021;50.882;4.326;2023-07-13T16:06:39;25.30;90.20
17795;DHT22;9021;50.882;4.326;2023-07-13T16:09:05;25.30;90.00
17795;DHT22;9021;50.882;4.326;2023-07-13T16:11:32;25.30;90.40
17795;DHT22;9021;50.882;4.326;2023-07-13T16:13:58;25.20;90.20
17795;DHT22;9021;50.882;4.326;2023-07-13T16:16:25;25.20;90.20